createdAt,value
2023-03-06T00:03:09.764Z,24.22
2023-03-06T00:07:09.966Z,24.19
2023-03-06T00:11:10.715Z,24.16
2023-03-06T00:15:10.341Z,24.12
2023-03-06T00:19:10.545Z,24.15
2023-03-06T00:23:10.698Z,24.17
2023-03-06T00:27:10.853Z,24.16
2023-03-06T00:31:11.064Z,24.15
2023-03-06T00:35:11.218Z,24.17
2023-03-06T00:39:11.390Z,24.19
2023-03-06T00:43:11.530Z,24.11
2023-03-06T00:47:11.681Z,24.19
2023-03-06T00:51:13.966Z,24.13
2023-03-06T00:55:12.009Z,24.05
2023-03-06T00:59:12.221Z,24.22
2023-03-06T01:03:12.393Z,24.12
2023-03-06T01:07:12.608Z,24.16
2023-03-06T01:11:12.760Z,24.13
2023-03-06T01:15:12.976Z,24.10
2023-03-06T01:19:13.171Z,24.11
2023-03-06T01:23:13.303Z,24.10
2023-03-06T01:27:13.518Z,24.10
2023-03-06T01:31:13.690Z,24.07
2023-03-06T01:35:13.893Z,24.06
2023-03-06T01:39:14.095Z,24.00
2023-03-06T01:43:14.279Z,24.07
2023-03-06T01:47:14.486Z,24.03
2023-03-06T01:51:14.684Z,24.10
2023-03-06T01:55:14.878Z,24.13
2023-03-06T01:59:15.082Z,24.13
2023-03-06T02:03:15.264Z,24.07
2023-03-06T02:07:15.512Z,24.11
2023-03-06T02:11:15.741Z,24.06
2023-03-06T02:15:15.893Z,24.09
2023-03-06T02:19:16.096Z,24.07
2023-03-06T02:23:16.314Z,24.10
2023-03-06T02:27:16.519Z,24.08
2023-03-06T02:31:16.769Z,24.04
2023-03-06T02:35:16.917Z,24.06
2023-03-06T02:39:17.132Z,24.07
2023-03-06T02:43:17.338Z,24.03
2023-03-06T02:47:17.324Z,24.01
2023-03-06T02:51:17.281Z,24.04
2023-03-06T02:55:17.229Z,24.06
2023-03-06T02:59:17.207Z,24.00
2023-03-06T03:03:17.158Z,24.05
2023-03-06T03:07:17.119Z,24.10
2023-03-06T03:11:17.122Z,24.07
2023-03-06T03:15:17.061Z,23.98
2023-03-06T03:19:16.982Z,23.95
2023-03-06T03:23:17.014Z,23.83
2023-03-06T03:27:17.025Z,23.76
2023-03-06T03:31:17.033Z,23.83
2023-03-06T03:35:16.934Z,23.82
2023-03-06T03:39:16.881Z,23.80
2023-03-06T03:43:16.863Z,23.81
2023-03-06T03:47:16.844Z,23.84
2023-03-06T03:51:16.787Z,23.79
2023-03-06T03:55:16.754Z,23.82
2023-03-06T03:59:16.762Z,23.82
2023-03-06T04:03:16.886Z,23.71
2023-03-06T04:07:16.836Z,23.73
2023-03-06T04:11:16.812Z,23.77
2023-03-06T04:15:16.804Z,23.71
2023-03-06T04:19:16.750Z,23.71
2023-03-06T04:23:16.726Z,23.82
2023-03-06T04:27:16.658Z,23.88
2023-03-06T04:31:16.670Z,23.97
2023-03-06T04:35:16.604Z,23.81
2023-03-06T04:39:16.571Z,23.71
2023-03-06T04:43:16.683Z,23.77
2023-03-06T04:47:19.053Z,23.68
2023-03-06T04:51:16.638Z,23.59
2023-03-06T04:55:16.588Z,23.68
2023-03-06T04:59:16.544Z,23.60
2023-03-06T05:03:16.516Z,23.54
2023-03-06T05:07:16.474Z,23.42
2023-03-06T05:11:16.426Z,23.44
2023-03-06T05:15:16.404Z,23.27
2023-03-06T05:19:16.382Z,23.33
2023-03-06T05:23:16.345Z,23.21
2023-03-06T05:27:17.004Z,23.24
2023-03-06T05:31:16.283Z,23.24
2023-03-06T05:35:16.207Z,23.12
2023-03-06T05:39:16.200Z,23.15
2023-03-06T05:43:16.141Z,23.21
2023-03-06T05:47:16.122Z,23.27
2023-03-06T05:51:16.096Z,23.49
2023-03-06T05:55:16.056Z,23.58
2023-03-06T05:59:16.045Z,23.78
2023-03-06T06:03:15.989Z,23.73
2023-03-06T06:07:15.920Z,23.73
2023-03-06T06:11:15.931Z,23.83
2023-03-06T06:15:15.845Z,23.80
2023-03-06T06:19:15.826Z,23.92
2023-03-06T06:23:15.808Z,23.81
2023-03-06T06:27:15.766Z,23.85
2023-03-06T06:31:15.765Z,23.92
2023-03-06T06:35:15.794Z,23.93
2023-03-06T06:39:15.957Z,23.98
2023-03-06T06:43:16.342Z,24.09
2023-03-06T06:47:22.843Z,24.31
2023-03-06T06:51:17.339Z,24.58
2023-03-06T06:55:16.247Z,25.17
2023-03-06T06:59:17.577Z,25.80
2023-03-06T07:03:16.334Z,26.46
2023-03-06T07:07:16.149Z,26.63
2023-03-06T07:11:16.333Z,27.28
2023-03-06T07:15:16.073Z,27.59
2023-03-06T07:19:16.070Z,27.74
2023-03-06T07:23:15.979Z,28.00
2023-03-06T07:27:15.980Z,28.09
2023-03-06T07:31:16.391Z,28.39
2023-03-06T07:35:20.212Z,28.70
2023-03-06T07:39:15.883Z,28.85
2023-03-06T07:43:19.359Z,28.96
2023-03-06T07:47:15.841Z,28.99
2023-03-06T07:51:15.866Z,29.49
2023-03-06T07:55:15.874Z,29.23
2023-03-06T07:59:15.715Z,29.20
2023-03-06T08:03:15.748Z,29.09
2023-03-06T08:07:15.638Z,29.14
2023-03-06T08:11:15.592Z,29.19
2023-03-06T08:15:15.805Z,29.19
2023-03-06T08:19:15.986Z,29.23
2023-03-06T08:23:16.359Z,29.24
2023-03-06T08:27:16.412Z,29.10
2023-03-06T08:31:16.683Z,29.22
2023-03-06T08:35:16.821Z,29.06
2023-03-06T08:39:17.389Z,29.05
2023-03-06T08:43:17.159Z,29.05
2023-03-06T08:47:17.384Z,29.21
2023-03-06T08:51:17.871Z,29.56
2023-03-06T08:55:17.872Z,29.89
2023-03-06T08:59:17.416Z,30.17
2023-03-06T09:03:17.881Z,30.56
2023-03-06T09:07:17.493Z,30.79
2023-03-06T09:11:17.676Z,31.22
2023-03-06T09:15:17.602Z,31.47
2023-03-06T09:19:17.612Z,31.59
2023-03-06T09:23:17.541Z,31.91
2023-03-06T09:27:17.528Z,32.24
2023-03-06T09:31:17.660Z,32.59
2023-03-06T09:35:17.461Z,32.86
2023-03-06T09:39:17.896Z,32.84
2023-03-06T09:43:17.378Z,33.04
2023-03-06T09:47:17.390Z,32.99
2023-03-06T09:51:17.297Z,33.01
2023-03-06T09:55:17.401Z,32.69
2023-03-06T09:59:17.382Z,32.33
2023-03-06T10:03:17.304Z,32.13
2023-03-06T10:07:17.401Z,31.73
2023-03-06T10:11:17.146Z,31.85
2023-03-06T10:15:17.135Z,31.50
2023-03-06T10:19:17.068Z,31.16
2023-03-06T10:23:17.393Z,30.81
2023-03-06T10:27:17.059Z,30.82
2023-03-06T10:31:17.516Z,30.51
2023-03-06T10:35:17.490Z,30.03
2023-03-06T10:39:16.916Z,30.07
2023-03-06T10:43:16.845Z,30.10
2023-03-06T10:47:16.937Z,26.67
2023-03-06T10:51:18.626Z,22.45
2023-03-06T10:55:16.909Z,26.59
2023-03-06T10:59:16.736Z,27.70
2023-03-06T11:03:16.935Z,28.01
2023-03-06T11:07:16.869Z,28.42
2023-03-06T11:11:22.443Z,28.65
2023-03-06T11:15:17.815Z,29.16
2023-03-06T11:19:16.812Z,29.97
2023-03-06T11:23:17.532Z,30.31
2023-03-06T11:27:17.425Z,30.61
2023-03-06T11:31:17.370Z,31.12
2023-03-06T11:35:17.907Z,31.37
2023-03-06T11:39:17.936Z,31.88
2023-03-06T11:43:17.924Z,32.21
2023-03-06T11:47:17.900Z,32.57
2023-03-06T11:51:18.411Z,33.07
2023-03-06T11:55:18.070Z,33.32
2023-03-06T11:59:18.150Z,33.51
2023-03-06T12:03:18.168Z,33.89
2023-03-06T12:07:18.239Z,34.09
2023-03-06T12:11:18.521Z,34.38
2023-03-06T12:15:18.187Z,34.67
2023-03-06T12:19:18.174Z,34.99
2023-03-06T12:23:18.955Z,35.20
2023-03-06T12:27:18.441Z,35.24
2023-03-06T12:31:18.580Z,35.19
2023-03-06T12:35:18.475Z,34.87
2023-03-06T12:39:18.157Z,34.38
2023-03-06T12:43:18.149Z,33.76
2023-03-06T12:47:18.466Z,33.47
2023-03-06T12:51:18.265Z,33.34
2023-03-06T12:55:21.189Z,33.21
2023-03-06T12:59:18.231Z,33.01
2023-03-06T13:03:18.465Z,32.89
2023-03-06T13:07:18.156Z,32.81
2023-03-06T13:11:18.081Z,32.79
2023-03-06T13:15:18.099Z,32.76
2023-03-06T13:19:18.038Z,32.61
2023-03-06T13:23:18.453Z,32.55
2023-03-06T13:27:18.138Z,32.35
2023-03-06T13:31:27.040Z,32.52
2023-03-06T13:35:19.211Z,32.32
2023-03-06T13:39:18.186Z,32.23
2023-03-06T13:43:18.151Z,32.00
2023-03-06T13:47:18.186Z,31.75
2023-03-06T13:51:18.325Z,31.71
2023-03-06T13:55:18.444Z,31.59
2023-03-06T13:59:18.570Z,31.38
2023-03-06T14:03:18.721Z,31.35
2023-03-06T14:07:18.875Z,31.17
2023-03-06T14:11:18.978Z,31.07
2023-03-06T14:15:19.096Z,31.01
2023-03-06T14:19:19.254Z,30.97
2023-03-06T14:23:19.456Z,30.79
2023-03-06T14:27:19.494Z,30.81
2023-03-06T14:31:19.677Z,30.75
2023-03-06T14:35:19.840Z,30.67
2023-03-06T14:39:19.935Z,30.67
2023-03-06T14:43:20.116Z,30.43
2023-03-06T14:47:20.224Z,30.40
2023-03-06T14:51:20.364Z,30.36
2023-03-06T14:55:20.518Z,30.27
2023-03-06T14:59:20.701Z,30.16
2023-03-06T15:03:20.988Z,30.06
2023-03-06T15:07:21.152Z,29.96
2023-03-06T15:11:21.191Z,29.95
2023-03-06T15:15:21.513Z,29.91
2023-03-06T15:19:21.493Z,29.93
2023-03-06T15:23:22.018Z,29.75
2023-03-06T15:27:21.807Z,29.74
2023-03-06T15:31:22.099Z,29.67
2023-03-06T15:35:22.206Z,29.59
2023-03-06T15:39:22.403Z,29.54
2023-03-06T15:43:22.571Z,29.43
2023-03-06T15:47:22.816Z,29.38
2023-03-06T15:51:23.012Z,29.28
2023-03-06T15:55:23.238Z,29.26
2023-03-06T15:59:23.162Z,29.17
2023-03-06T16:03:23.175Z,29.12
2023-03-06T16:07:23.085Z,29.20
2023-03-06T16:11:24.569Z,29.05
2023-03-06T16:15:23.044Z,29.10
2023-03-06T16:19:26.524Z,29.18
2023-03-06T16:23:22.950Z,29.25
2023-03-06T16:27:22.940Z,29.21
2023-03-06T16:31:22.912Z,29.13
2023-03-06T16:35:22.919Z,29.33
2023-03-06T16:39:22.835Z,29.35
2023-03-06T16:43:22.897Z,29.46
2023-03-06T16:47:22.765Z,29.36
2023-03-06T16:51:22.721Z,29.37
2023-03-06T16:55:22.672Z,29.39
2023-03-06T16:59:22.654Z,29.36
2023-03-06T17:03:23.045Z,29.39
2023-03-06T17:07:22.528Z,29.41
2023-03-06T17:11:22.541Z,29.34
2023-03-06T17:15:22.528Z,29.43
2023-03-06T17:19:22.434Z,29.36
2023-03-06T17:23:22.416Z,29.33
2023-03-06T17:27:22.405Z,29.33
2023-03-06T17:31:22.425Z,29.32
2023-03-06T17:35:22.478Z,29.34
2023-03-06T17:39:22.591Z,29.31
2023-03-06T17:43:22.738Z,29.26
2023-03-06T17:47:22.820Z,29.26
2023-03-06T17:51:23.002Z,29.18
2023-03-06T17:55:23.087Z,29.12
2023-03-06T17:59:23.272Z,29.14
2023-03-06T18:03:23.383Z,29.13
2023-03-06T18:07:23.569Z,29.12
2023-03-06T18:11:23.732Z,29.09
2023-03-06T18:15:23.939Z,29.10
2023-03-06T18:19:24.114Z,29.10
2023-03-06T18:23:24.307Z,29.06
2023-03-06T18:27:24.440Z,29.01
2023-03-06T18:31:24.670Z,28.97
2023-03-06T18:35:24.904Z,28.99
2023-03-06T18:39:25.074Z,28.93
2023-03-06T18:43:25.256Z,28.94
2023-03-06T18:47:25.454Z,28.90
2023-03-06T18:51:25.626Z,28.87
2023-03-06T18:55:25.890Z,28.82
2023-03-06T18:59:26.079Z,28.80
2023-03-06T19:03:26.277Z,28.78
2023-03-06T19:07:26.513Z,28.77
2023-03-06T19:11:26.699Z,28.69
2023-03-06T19:15:26.943Z,28.68
2023-03-06T19:19:26.907Z,28.66
2023-03-06T19:23:26.841Z,28.62
2023-03-06T19:27:26.822Z,28.59
2023-03-06T19:31:26.949Z,28.58
2023-03-06T19:35:26.752Z,28.55
2023-03-06T19:39:26.702Z,28.52
2023-03-06T19:43:26.692Z,28.51
2023-03-06T19:47:26.635Z,28.45
2023-03-06T19:51:26.602Z,28.43
2023-03-06T19:55:26.682Z,28.38
2023-03-06T19:59:26.601Z,28.39
2023-03-06T20:03:26.559Z,28.42
2023-03-06T20:07:26.540Z,28.40
2023-03-06T20:11:26.497Z,28.39
2023-03-06T20:15:26.521Z,28.32
2023-03-06T20:19:26.442Z,28.24
2023-03-06T20:23:26.412Z,28.33
2023-03-06T20:27:26.332Z,28.33
2023-03-06T20:31:26.375Z,28.24
2023-03-06T20:35:26.279Z,28.18
2023-03-06T20:39:26.237Z,28.13
2023-03-06T20:43:26.333Z,28.18
2023-03-06T20:47:26.511Z,28.15
2023-03-06T20:51:26.701Z,28.10
2023-03-06T20:55:26.912Z,28.03
2023-03-06T20:59:27.038Z,28.00
2023-03-06T21:03:27.200Z,27.95
2023-03-06T21:07:27.354Z,27.96
2023-03-06T21:11:27.462Z,27.96
2023-03-06T21:15:27.563Z,27.97
2023-03-06T21:19:27.522Z,27.93
2023-03-06T21:23:27.489Z,27.87
2023-03-06T21:27:27.481Z,27.84
2023-03-06T21:31:27.530Z,27.87
2023-03-06T21:35:27.518Z,27.84
2023-03-06T21:39:27.441Z,27.80
2023-03-06T21:43:27.426Z,27.80
2023-03-06T21:47:27.377Z,27.82
2023-03-06T21:51:27.381Z,27.76
2023-03-06T21:55:27.419Z,27.81
2023-03-06T21:59:27.381Z,27.78
2023-03-06T22:03:27.402Z,27.75
2023-03-06T22:07:27.404Z,27.69
2023-03-06T22:11:27.394Z,27.62
2023-03-06T22:15:27.416Z,27.58
2023-03-06T22:19:27.421Z,27.60
2023-03-06T22:23:27.430Z,27.54
2023-03-06T22:27:27.443Z,27.58
2023-03-06T22:31:27.496Z,27.53
2023-03-06T22:35:27.440Z,27.49
2023-03-06T22:39:27.483Z,27.48
2023-03-06T22:43:27.491Z,27.35
2023-03-06T22:47:27.507Z,27.43
2023-03-06T22:51:27.521Z,27.37
2023-03-06T22:55:27.563Z,27.33
2023-03-06T22:59:27.600Z,27.31
2023-03-06T23:03:27.639Z,27.34
2023-03-06T23:07:27.659Z,27.34
2023-03-06T23:11:27.737Z,27.32
2023-03-06T23:15:27.802Z,27.24
2023-03-06T23:19:27.788Z,27.21
2023-03-06T23:23:27.853Z,27.25
2023-03-06T23:27:27.884Z,27.22
2023-03-06T23:31:27.945Z,27.20
2023-03-06T23:35:28.031Z,27.21
2023-03-06T23:39:28.010Z,27.16
2023-03-06T23:43:28.050Z,27.18
2023-03-06T23:47:28.104Z,27.11
2023-03-06T23:51:28.157Z,27.06
2023-03-06T23:55:28.226Z,27.08
2023-03-06T23:59:28.231Z,27.05
